Terminal Aerodrome Forecast
Issued by NWS

Home | Current Version | Previous Version | Text Only | Print | Product List | Glossary On
Versions: 1 2 3 4 5 6 7 8 9 10 11 12 13 14 15 16
815
FTUS43 KMQT 062340
TAFSAW
TAF
KSAW 062340Z 0700/0724 19008KT P6SM OVC080
     FM070200 19008KT P6SM OVC050
     FM070400 19010KT 5SM -SN OVC030
     FM070900 20012G17KT 4SM -SN OVC013
     FM071100 20010KT 3SM -SN OVC010
     FM071700 21009KT P6SM OVC009
     FM072100 21007KT 3SM -SN OVC007=

USA.gov is the U.S. government's official web portal to all federal, state and local government web resources and services.